createdAt,value
2023-05-14T00:01:01.425Z,21.10
2023-05-14T00:03:28.006Z,20.10
2023-05-14T00:05:54.833Z,21.70
2023-05-14T00:08:21.394Z,19.20
2023-05-14T00:10:47.942Z,21.30
2023-05-14T00:13:14.477Z,20.20
2023-05-14T00:15:41.434Z,20.30
2023-05-14T00:18:07.951Z,19.00
2023-05-14T00:20:34.463Z,19.00
2023-05-14T00:23:01.176Z,19.70
2023-05-14T00:25:27.930Z,18.20
2023-05-14T00:27:54.504Z,18.80
2023-05-14T00:30:21.113Z,17.90
2023-05-14T00:32:47.705Z,17.30
2023-05-14T00:35:14.356Z,18.30
2023-05-14T00:37:40.840Z,17.90
2023-05-14T00:40:08.145Z,17.60
2023-05-14T00:42:34.979Z,17.50
2023-05-14T00:45:01.683Z,17.30
2023-05-14T00:47:28.501Z,17.90
2023-05-14T00:49:55.647Z,18.40
2023-05-14T00:52:22.233Z,18.70
2023-05-14T00:54:49.399Z,19.90
2023-05-14T00:57:16.279Z,18.60
2023-05-14T00:59:43.005Z,19.80
2023-05-14T01:02:09.578Z,21.20
2023-05-14T01:04:36.922Z,21.50
2023-05-14T01:07:32.807Z,21.40
2023-05-14T01:10:20.240Z,20.50
2023-05-14T01:13:04.194Z,20.40
2023-05-14T01:15:35.978Z,21.70
2023-05-14T01:18:16.961Z,19.20
2023-05-14T01:20:44.770Z,19.00
2023-05-14T01:23:11.364Z,21.10
2023-05-14T01:25:38.137Z,24.50
2023-05-14T01:28:19.255Z,23.00
2023-05-14T01:30:57.252Z,23.20
2023-05-14T01:33:27.611Z,31.10
2023-05-14T01:35:55.657Z,25.70
2023-05-14T01:40:51.323Z,31.30
2023-05-14T01:43:19.296Z,28.40
2023-05-14T01:45:46.217Z,33.20
2023-05-14T01:48:12.816Z,26.60
2023-05-14T01:50:39.489Z,27.10
2023-05-14T01:53:06.003Z,26.20
2023-05-14T01:55:32.838Z,25.80
2023-05-14T01:57:59.287Z,26.60
2023-05-14T02:00:26.314Z,26.30
2023-05-14T02:02:53.682Z,27.20
2023-05-14T02:05:20.407Z,26.30
2023-05-14T02:07:46.933Z,26.90
2023-05-14T02:10:13.825Z,27.40
2023-05-14T02:12:40.756Z,27.70
2023-05-14T02:15:08.418Z,30.20
2023-05-14T02:17:35.034Z,29.30
2023-05-14T02:20:01.558Z,28.20
2023-05-14T02:22:28.028Z,28.10
2023-05-14T02:24:54.529Z,29.10
2023-05-14T02:27:20.978Z,28.60
2023-05-14T02:29:47.576Z,26.10
2023-05-14T02:32:14.216Z,26.80
2023-05-14T02:34:40.700Z,28.60
2023-05-14T02:37:07.385Z,27.60
2023-05-14T02:39:33.969Z,28.40
2023-05-14T02:42:00.512Z,26.60
2023-05-14T02:44:27.188Z,27.40
2023-05-14T02:46:53.829Z,26.60
2023-05-14T02:49:20.550Z,25.50
2023-05-14T02:51:46.980Z,27.30
2023-05-14T02:54:13.754Z,28.30
2023-05-14T02:56:40.480Z,29.20
2023-05-14T02:59:07.576Z,26.40
2023-05-14T03:01:34.684Z,23.50
2023-05-14T03:04:02.038Z,24.50
2023-05-14T03:06:28.746Z,24.00
2023-05-14T03:08:55.206Z,24.50
2023-05-14T03:11:21.849Z,24.60
2023-05-14T03:13:48.551Z,23.30
2023-05-14T03:16:15.094Z,22.40
2023-05-14T03:18:41.660Z,23.90
2023-05-14T03:21:08.236Z,23.20
2023-05-14T03:23:35.564Z,23.80
2023-05-14T03:26:02.370Z,22.10
2023-05-14T03:28:29.097Z,23.40
2023-05-14T03:30:55.806Z,25.30
2023-05-14T03:33:22.694Z,24.50
2023-05-14T03:35:49.211Z,24.00
2023-05-14T03:38:15.970Z,25.00
2023-05-14T03:40:42.514Z,28.80
2023-05-14T03:43:09.178Z,27.00
2023-05-14T03:45:36.357Z,25.10
2023-05-14T03:48:03.432Z,25.60
2023-05-14T03:50:30.316Z,25.00
2023-05-14T03:52:57.099Z,25.80
2023-05-14T03:55:23.792Z,20.90
2023-05-14T03:57:50.478Z,18.50
2023-05-14T04:00:17.116Z,16.10
2023-05-14T04:02:43.843Z,13.50
2023-05-14T04:05:10.479Z,12.60
2023-05-14T04:07:37.003Z,11.40
2023-05-14T04:10:04.756Z,12.10
2023-05-14T04:12:31.593Z,13.50
2023-05-14T04:14:58.497Z,13.60
2023-05-14T04:17:25.222Z,14.20
2023-05-14T04:19:51.739Z,14.70
2023-05-14T04:22:18.235Z,12.60
2023-05-14T04:24:44.721Z,12.50
2023-05-14T04:27:11.148Z,11.00
2023-05-14T04:29:37.683Z,10.80
2023-05-14T04:32:04.892Z,10.80
2023-05-14T04:34:32.016Z,11.10
2023-05-14T04:36:58.767Z,11.50
2023-05-14T04:39:25.267Z,12.10
2023-05-14T04:41:51.691Z,10.60
2023-05-14T04:44:18.176Z,11.20
2023-05-14T04:46:44.620Z,11.70
2023-05-14T04:49:11.167Z,11.60
2023-05-14T04:51:37.634Z,11.50
2023-05-14T04:54:04.313Z,11.50
2023-05-14T04:56:30.826Z,12.30
2023-05-14T04:58:57.362Z,11.70
2023-05-14T05:01:23.893Z,11.90
2023-05-14T05:03:50.405Z,11.20
2023-05-14T05:06:16.923Z,11.00
2023-05-14T05:08:43.552Z,11.60
2023-05-14T05:11:09.990Z,11.90
2023-05-14T05:13:36.546Z,11.50
2023-05-14T05:16:03.113Z,11.20
2023-05-14T05:18:29.772Z,11.40
2023-05-14T05:20:56.646Z,11.30
2023-05-14T05:23:23.064Z,10.30
2023-05-14T05:25:50.616Z,9.00
2023-05-14T05:28:17.128Z,9.10
2023-05-14T05:30:43.658Z,7.70
2023-05-14T05:33:10.254Z,8.50
2023-05-14T05:35:36.784Z,7.80
2023-05-14T05:38:03.325Z,7.10
2023-05-14T05:40:29.827Z,8.80
2023-05-14T05:42:56.313Z,9.00
2023-05-14T05:45:22.841Z,8.70
2023-05-14T05:47:49.307Z,8.70
2023-05-14T05:50:16.173Z,8.30
2023-05-14T05:52:43.229Z,8.50
2023-05-14T05:55:10.225Z,7.40
2023-05-14T05:57:36.660Z,8.30
2023-05-14T06:00:03.635Z,7.80
2023-05-14T06:02:30.185Z,7.50
2023-05-14T06:04:56.991Z,7.20
2023-05-14T06:07:23.658Z,7.30
2023-05-14T06:09:50.247Z,7.10
2023-05-14T06:12:16.801Z,6.80
2023-05-14T06:14:43.249Z,7.10
2023-05-14T06:17:09.711Z,7.70
2023-05-14T06:19:36.175Z,7.80
2023-05-14T06:22:02.693Z,7.20
2023-05-14T06:24:29.104Z,6.40
2023-05-14T06:26:55.686Z,7.30
2023-05-14T06:29:22.254Z,6.40
2023-05-14T06:31:48.879Z,6.60
2023-05-14T06:34:15.426Z,6.10
2023-05-14T06:36:42.050Z,5.80
2023-05-14T06:39:08.565Z,5.70
2023-05-14T06:41:35.116Z,5.80
2023-05-14T06:44:01.548Z,5.40
2023-05-14T06:46:27.988Z,4.80
2023-05-14T06:48:55.694Z,4.70
2023-05-14T06:51:23.342Z,4.10
2023-05-14T06:53:49.765Z,4.20
2023-05-14T06:56:16.203Z,4.60
2023-05-14T06:58:42.601Z,4.70
2023-05-14T07:01:09.179Z,3.80
2023-05-14T07:03:35.707Z,4.30
2023-05-14T07:06:02.258Z,4.40
2023-05-14T07:08:28.948Z,3.90
2023-05-14T07:10:55.414Z,3.70
2023-05-14T07:13:21.880Z,4.20
2023-05-14T07:15:48.424Z,3.50
2023-05-14T07:18:15.119Z,4.00
2023-05-14T07:20:41.534Z,3.70
2023-05-14T07:23:08.043Z,2.70
2023-05-14T07:25:34.516Z,2.60
2023-05-14T07:28:00.927Z,2.80
2023-05-14T07:30:27.376Z,2.90
2023-05-14T07:32:54.039Z,2.80
2023-05-14T07:35:20.806Z,2.70
2023-05-14T07:37:47.459Z,2.60
2023-05-14T07:40:14.060Z,2.60
2023-05-14T07:42:40.794Z,2.80
2023-05-14T07:45:08.417Z,2.80
2023-05-14T07:47:35.152Z,2.90
2023-05-14T07:50:02.012Z,2.70
2023-05-14T07:52:28.473Z,2.50
2023-05-14T07:54:55.034Z,2.60
2023-05-14T07:57:21.543Z,3.30
2023-05-14T07:59:48.715Z,2.80
2023-05-14T08:02:15.668Z,2.60
2023-05-14T08:04:42.220Z,2.20
2023-05-14T08:07:08.767Z,2.00
2023-05-14T08:09:35.360Z,3.00
2023-05-14T08:12:02.056Z,2.20
2023-05-14T08:14:28.608Z,2.70
2023-05-14T08:16:55.308Z,1.60
2023-05-14T08:19:23.167Z,2.10
2023-05-14T08:21:49.690Z,9.30
2023-05-14T08:24:16.265Z,1.80
2023-05-14T08:26:42.785Z,1.70
2023-05-14T08:29:10.698Z,1.80
2023-05-14T08:31:38.202Z,1.20
2023-05-14T08:34:04.683Z,1.30
2023-05-14T08:36:31.129Z,1.20
2023-05-14T08:39:06.291Z,1.50
2023-05-14T08:41:32.827Z,1.40
2023-05-14T08:44:13.612Z,1.30
2023-05-14T08:46:41.597Z,1.40
2023-05-14T08:49:17.760Z,1.70
2023-05-14T08:51:44.948Z,1.30
2023-05-14T08:54:13.016Z,1.70
2023-05-14T08:56:41.118Z,1.50
2023-05-14T08:59:07.656Z,1.60
2023-05-14T09:01:34.416Z,1.30
2023-05-14T09:04:02.077Z,1.30
2023-05-14T09:06:29.419Z,1.60
2023-05-14T09:08:56.386Z,1.60
2023-05-14T09:11:22.829Z,1.50
2023-05-14T09:13:49.269Z,1.50
2023-05-14T09:16:18.440Z,1.40
2023-05-14T09:18:45.539Z,1.20
2023-05-14T09:21:17.730Z,1.70
2023-05-14T09:23:45.091Z,1.30
2023-05-14T09:26:12.575Z,1.20
2023-05-14T09:28:43.616Z,1.20
2023-05-14T09:31:10.231Z,1.20
2023-05-14T09:33:36.919Z,1.10
2023-05-14T09:36:03.563Z,1.20
2023-05-14T09:38:33.484Z,1.30
2023-05-14T09:41:00.829Z,1.40
2023-05-14T09:43:27.327Z,1.20
2023-05-14T09:45:53.878Z,1.20
2023-05-14T09:48:20.847Z,1.40
2023-05-14T09:50:47.500Z,1.10
2023-05-14T09:53:14.649Z,1.10
2023-05-14T09:55:41.495Z,1.00
2023-05-14T09:58:07.968Z,0.90
2023-05-14T10:00:35.539Z,1.30
2023-05-14T10:03:06.656Z,1.00
2023-05-14T10:05:36.172Z,1.10
2023-05-14T10:08:09.313Z,1.10
2023-05-14T10:10:37.890Z,1.10
2023-05-14T10:13:12.272Z,0.90
2023-05-14T10:16:23.610Z,0.90
2023-05-14T10:18:55.767Z,1.20
2023-05-14T10:21:24.728Z,1.10
2023-05-14T10:23:52.260Z,0.90
2023-05-14T10:26:18.965Z,1.10
2023-05-14T10:28:45.827Z,1.20
2023-05-14T10:31:13.316Z,1.20
2023-05-14T10:33:48.307Z,1.10
2023-05-14T10:36:15.266Z,1.20
2023-05-14T10:38:41.730Z,1.10
2023-05-14T10:41:13.282Z,1.40
2023-05-14T10:43:41.667Z,1.30
2023-05-14T10:46:10.587Z,1.00
2023-05-14T10:48:39.737Z,1.10
2023-05-14T10:51:08.766Z,1.10
2023-05-14T10:53:41.365Z,1.00
2023-05-14T10:56:12.353Z,1.10
2023-05-14T10:58:41.680Z,1.00
2023-05-14T11:01:10.149Z,1.00
2023-05-14T11:03:45.372Z,1.00
2023-05-14T11:06:15.995Z,1.30
2023-05-14T11:08:42.778Z,1.30
2023-05-14T11:11:10.859Z,1.20
2023-05-14T11:13:37.937Z,1.20
2023-05-14T11:16:18.896Z,1.20
2023-05-14T11:18:53.782Z,1.50
2023-05-14T11:21:20.405Z,1.20
2023-05-14T11:23:47.058Z,1.50
2023-05-14T11:26:14.137Z,1.20
2023-05-14T11:28:41.396Z,1.10
2023-05-14T11:31:07.942Z,1.20
2023-05-14T11:33:36.042Z,0.90
2023-05-14T11:36:02.633Z,1.50
2023-05-14T11:38:29.103Z,1.30
2023-05-14T11:40:56.817Z,1.30
2023-05-14T11:43:23.891Z,1.30
2023-05-14T11:45:54.347Z,1.10
2023-05-14T11:48:22.236Z,1.10
2023-05-14T11:50:50.604Z,0.90
2023-05-14T11:53:25.441Z,1.00
2023-05-14T11:55:53.383Z,1.10
2023-05-14T11:58:20.591Z,1.00
2023-05-14T12:00:50.201Z,1.30
2023-05-14T12:03:18.390Z,1.50
2023-05-14T12:05:59.528Z,1.10
2023-05-14T12:08:30.674Z,1.20
2023-05-14T12:10:59.343Z,1.20
2023-05-14T12:13:32.987Z,1.10
2023-05-14T12:16:01.477Z,1.70
2023-05-14T12:18:29.958Z,1.10
2023-05-14T12:21:02.766Z,1.20
2023-05-14T12:23:30.911Z,1.50
2023-05-14T12:26:08.685Z,1.00
2023-05-14T12:28:38.388Z,1.20
2023-05-14T12:31:05.701Z,1.00
2023-05-14T12:33:32.366Z,1.10
2023-05-14T12:36:00.499Z,1.00
2023-05-14T12:38:32.065Z,1.10
2023-05-14T12:40:58.596Z,1.10
2023-05-14T12:43:25.105Z,1.00
2023-05-14T12:45:51.671Z,1.00
2023-05-14T12:48:18.129Z,1.20
2023-05-14T12:50:44.786Z,0.90
2023-05-14T12:53:11.327Z,0.90
2023-05-14T12:55:37.780Z,1.20
2023-05-14T12:58:04.276Z,1.20
2023-05-14T13:00:30.760Z,0.90
2023-05-14T13:02:57.499Z,1.20
2023-05-14T13:05:24.263Z,1.00
2023-05-14T13:07:52.563Z,1.30
2023-05-14T13:10:19.107Z,0.90
2023-05-14T13:12:45.660Z,0.80
2023-05-14T13:15:12.224Z,0.80
2023-05-14T13:17:39.026Z,1.20
2023-05-14T13:20:06.390Z,1.30
2023-05-14T13:22:32.826Z,1.00
2023-05-14T13:24:59.434Z,0.90
2023-05-14T13:27:25.992Z,0.90
2023-05-14T13:29:52.419Z,1.10
2023-05-14T13:32:18.985Z,1.20
2023-05-14T13:34:45.546Z,0.80
2023-05-14T13:37:12.196Z,1.10
2023-05-14T13:39:39.806Z,0.90
2023-05-14T13:42:07.514Z,0.90
2023-05-14T13:44:34.009Z,0.90
2023-05-14T13:47:00.478Z,1.10
2023-05-14T13:49:26.882Z,1.10
2023-05-14T13:51:53.366Z,0.90
2023-05-14T13:54:19.828Z,0.80
2023-05-14T13:56:46.239Z,0.80
2023-05-14T13:59:12.782Z,0.70
2023-05-14T14:01:39.331Z,0.70
2023-05-14T14:04:05.984Z,0.60
2023-05-14T14:06:32.532Z,0.90
2023-05-14T14:08:59.020Z,0.80
2023-05-14T14:11:25.731Z,0.60
2023-05-14T14:13:52.328Z,0.70
2023-05-14T14:16:19.121Z,0.70
2023-05-14T14:18:45.819Z,0.80
2023-05-14T14:21:12.318Z,0.90
2023-05-14T14:23:38.866Z,0.90
2023-05-14T14:26:05.329Z,0.80
2023-05-14T14:28:32.767Z,1.00
2023-05-14T14:30:59.232Z,0.80
2023-05-14T14:33:25.692Z,0.80
2023-05-14T14:35:52.144Z,0.80
2023-05-14T14:38:19.125Z,0.70
2023-05-14T14:40:45.735Z,1.00
2023-05-14T14:43:12.217Z,0.70
2023-05-14T14:45:38.906Z,0.90
2023-05-14T14:48:25.094Z,0.90
2023-05-14T14:50:52.685Z,1.00
2023-05-14T14:53:23.185Z,0.80
2023-05-14T14:55:50.664Z,0.90
2023-05-14T14:58:18.751Z,1.00
2023-05-14T15:00:45.477Z,1.00
2023-05-14T15:03:12.360Z,0.90
2023-05-14T15:05:39.065Z,1.00
2023-05-14T15:08:05.661Z,1.00
2023-05-14T15:10:32.844Z,0.90
2023-05-14T15:12:59.798Z,1.20
2023-05-14T15:15:26.512Z,1.10
2023-05-14T15:17:53.154Z,1.20
2023-05-14T15:20:19.790Z,1.10
2023-05-14T15:22:46.501Z,1.10
2023-05-14T15:25:12.992Z,0.90
2023-05-14T15:27:39.573Z,1.40
2023-05-14T15:30:07.262Z,1.20
2023-05-14T15:32:33.977Z,1.20
2023-05-14T15:35:00.575Z,1.10
2023-05-14T15:37:27.059Z,1.50
2023-05-14T15:39:53.583Z,1.30
2023-05-14T15:42:20.296Z,1.20
2023-05-14T15:44:46.705Z,1.20
2023-05-14T15:47:13.139Z,1.10
2023-05-14T15:49:39.594Z,1.60
2023-05-14T15:52:06.176Z,1.50
2023-05-14T15:54:32.912Z,2.00
2023-05-14T15:56:59.405Z,1.50
2023-05-14T15:59:25.968Z,1.50
2023-05-14T16:01:52.813Z,1.60
2023-05-14T16:04:19.387Z,1.30
2023-05-14T16:06:45.939Z,1.50
2023-05-14T16:09:12.443Z,1.60
2023-05-14T16:11:39.004Z,1.90
2023-05-14T16:14:05.553Z,1.60
2023-05-14T16:16:32.066Z,1.90
2023-05-14T16:18:59.834Z,1.60
2023-05-14T16:21:26.734Z,2.20
2023-05-14T16:23:53.343Z,2.60
2023-05-14T16:26:19.925Z,2.20
2023-05-14T16:28:46.582Z,2.10
2023-05-14T16:31:13.153Z,2.20
2023-05-14T16:33:39.729Z,2.60
2023-05-14T16:36:06.306Z,2.00
2023-05-14T16:38:32.762Z,2.10
2023-05-14T16:41:00.579Z,2.20
2023-05-14T16:43:27.206Z,1.80
2023-05-14T16:45:54.107Z,1.90
2023-05-14T16:48:20.714Z,1.80
2023-05-14T16:50:47.180Z,1.80
2023-05-14T16:53:13.707Z,1.70
2023-05-14T16:55:40.172Z,1.60
2023-05-14T16:58:06.802Z,1.60
2023-05-14T17:00:33.342Z,1.70
2023-05-14T17:03:00.014Z,1.60
2023-05-14T17:05:26.621Z,1.50
2023-05-14T17:07:53.212Z,1.80
2023-05-14T17:10:19.837Z,2.00
2023-05-14T17:12:46.624Z,2.20
2023-05-14T17:15:13.352Z,2.00
2023-05-14T17:17:39.988Z,2.00
2023-05-14T17:20:07.077Z,2.20
2023-05-14T17:22:34.208Z,1.70
2023-05-14T17:25:00.775Z,1.70
2023-05-14T17:27:27.414Z,1.70
2023-05-14T17:29:53.838Z,1.80
2023-05-14T17:32:20.497Z,1.70
2023-05-14T17:34:47.021Z,2.00
2023-05-14T17:37:13.485Z,2.00
2023-05-14T17:39:39.985Z,2.20
2023-05-14T17:42:07.094Z,2.80
2023-05-14T17:44:33.710Z,2.60
2023-05-14T17:47:00.697Z,2.30
2023-05-14T17:49:27.242Z,2.50
2023-05-14T17:51:53.653Z,2.20
2023-05-14T17:54:20.409Z,2.30
2023-05-14T17:56:47.147Z,2.00
2023-05-14T17:59:14.508Z,2.50
2023-05-14T18:01:40.976Z,2.60
2023-05-14T18:04:07.502Z,3.90
2023-05-14T18:06:34.577Z,6.20
2023-05-14T18:09:01.119Z,5.40
2023-05-14T18:11:27.858Z,4.10
2023-05-14T18:13:54.265Z,3.70
2023-05-14T18:16:21.197Z,3.40
2023-05-14T18:18:47.807Z,3.60
2023-05-14T18:21:14.578Z,3.20
2023-05-14T18:23:41.100Z,2.50
2023-05-14T18:26:07.824Z,2.50
2023-05-14T18:28:34.519Z,2.20
2023-05-14T18:31:01.869Z,1.80
2023-05-14T18:33:28.406Z,1.80
2023-05-14T18:35:54.896Z,2.00
2023-05-14T18:38:21.425Z,2.20
2023-05-14T18:40:48.449Z,1.70
2023-05-14T18:43:15.759Z,1.60
2023-05-14T18:45:46.196Z,2.10
2023-05-14T18:48:13.457Z,1.70
2023-05-14T18:50:40.004Z,2.00
2023-05-14T18:53:07.013Z,2.20
2023-05-14T18:55:35.267Z,2.00
2023-05-14T18:58:01.975Z,2.10
2023-05-14T19:00:28.620Z,2.00
2023-05-14T19:02:55.306Z,2.10
2023-05-14T19:05:22.204Z,2.00
2023-05-14T19:07:48.923Z,1.90
2023-05-14T19:10:15.468Z,2.10
2023-05-14T19:12:41.936Z,1.90
2023-05-14T19:15:08.881Z,1.90
2023-05-14T19:17:35.505Z,1.40
2023-05-14T19:20:02.281Z,1.70
2023-05-14T19:22:28.969Z,1.70
2023-05-14T19:24:55.479Z,1.70
2023-05-14T19:27:22.386Z,2.00
2023-05-14T19:29:48.939Z,1.80
2023-05-14T19:32:15.484Z,1.80
2023-05-14T19:34:41.984Z,1.90
2023-05-14T19:37:08.587Z,1.90
2023-05-14T19:39:34.994Z,1.30
2023-05-14T19:42:01.628Z,1.40
2023-05-14T19:44:28.081Z,1.50
2023-05-14T19:46:54.739Z,1.50
2023-05-14T19:49:21.341Z,1.40
2023-05-14T19:51:47.804Z,1.20
2023-05-14T19:54:14.432Z,1.80
2023-05-14T19:56:40.877Z,2.10
2023-05-14T19:59:07.432Z,1.80
2023-05-14T20:01:34.088Z,2.10
2023-05-14T20:04:00.762Z,2.20
2023-05-14T20:06:27.368Z,2.00
2023-05-14T20:08:53.895Z,1.80
2023-05-14T20:11:20.605Z,2.00
2023-05-14T20:13:48.003Z,2.10
2023-05-14T20:16:14.546Z,1.80
2023-05-14T20:18:40.989Z,1.70
2023-05-14T20:21:07.527Z,1.70
2023-05-14T20:23:34.292Z,1.60
2023-05-14T20:26:00.758Z,2.10
2023-05-14T20:28:27.499Z,1.60
2023-05-14T20:30:54.297Z,1.60
2023-05-14T20:33:21.153Z,1.80
2023-05-14T20:35:47.948Z,1.60
2023-05-14T20:38:14.507Z,1.80
2023-05-14T20:40:40.976Z,1.70
2023-05-14T20:43:07.631Z,2.00
2023-05-14T20:45:34.180Z,1.60
2023-05-14T20:48:00.750Z,1.80
2023-05-14T20:50:27.531Z,1.80
2023-05-14T20:52:55.276Z,1.80
2023-05-14T20:55:21.797Z,1.80
2023-05-14T20:57:48.304Z,2.00
2023-05-14T21:00:15.395Z,1.60
2023-05-14T21:02:42.009Z,2.00
2023-05-14T21:05:09.031Z,1.70
2023-05-14T21:07:35.468Z,1.90
2023-05-14T21:10:02.641Z,1.70
2023-05-14T21:12:29.171Z,1.70
2023-05-14T21:14:55.637Z,2.10
2023-05-14T21:17:22.268Z,1.70
2023-05-14T21:19:48.776Z,2.00
2023-05-14T21:22:15.308Z,1.80
2023-05-14T21:24:41.768Z,1.70
2023-05-14T21:27:08.479Z,2.00
2023-05-14T21:29:34.875Z,1.80
2023-05-14T21:32:01.416Z,2.00
2023-05-14T21:34:29.125Z,1.70
2023-05-14T21:36:56.511Z,1.90
2023-05-14T21:39:22.976Z,1.80
2023-05-14T21:41:49.693Z,1.80
2023-05-14T21:44:16.378Z,2.00
2023-05-14T21:46:42.926Z,1.60
2023-05-14T21:49:09.477Z,1.50
2023-05-14T21:51:36.019Z,1.40
2023-05-14T21:54:02.664Z,1.80
2023-05-14T21:56:29.131Z,1.90
2023-05-14T21:58:56.164Z,1.50
2023-05-14T22:01:23.064Z,2.00
2023-05-14T22:03:49.723Z,1.80
2023-05-14T22:06:16.806Z,1.80
2023-05-14T22:08:43.252Z,1.60
2023-05-14T22:11:09.711Z,1.70
2023-05-14T22:13:36.161Z,1.70
2023-05-14T22:16:12.102Z,1.90
2023-05-14T22:18:39.270Z,2.00
2023-05-14T22:21:06.085Z,1.60
2023-05-14T22:23:32.572Z,1.90
2023-05-14T22:25:59.071Z,1.80
2023-05-14T22:28:25.570Z,2.00
2023-05-14T22:30:52.449Z,1.90
2023-05-14T22:33:19.284Z,1.80
2023-05-14T22:35:46.277Z,2.10
2023-05-14T22:38:13.556Z,2.10
2023-05-14T22:40:40.153Z,1.80
2023-05-14T22:43:06.595Z,2.10
2023-05-14T22:45:33.147Z,2.00
2023-05-14T22:47:59.905Z,2.00
2023-05-14T22:50:26.549Z,1.70
2023-05-14T22:52:52.962Z,1.80
2023-05-14T22:55:19.543Z,2.10
2023-05-14T22:57:46.080Z,1.70
2023-05-14T23:00:13.454Z,2.00
2023-05-14T23:02:40.334Z,1.90
2023-05-14T23:05:08.664Z,1.60
2023-05-14T23:07:35.578Z,2.20
2023-05-14T23:10:02.202Z,1.70
2023-05-14T23:12:28.764Z,1.80
2023-05-14T23:14:55.552Z,1.80
2023-05-14T23:17:22.185Z,1.90
2023-05-14T23:19:48.936Z,2.00
2023-05-14T23:22:15.673Z,1.90
2023-05-14T23:24:42.124Z,1.90
2023-05-14T23:27:10.787Z,1.50
2023-05-14T23:29:37.577Z,2.00
2023-05-14T23:32:04.399Z,1.80
2023-05-14T23:34:30.993Z,1.60
2023-05-14T23:36:57.464Z,1.70
2023-05-14T23:39:24.112Z,1.80
2023-05-14T23:41:50.875Z,1.90
2023-05-14T23:44:17.424Z,2.20
2023-05-14T23:46:44.145Z,2.40
2023-05-14T23:49:11.102Z,2.10
2023-05-14T23:51:37.674Z,2.20
2023-05-14T23:54:04.321Z,2.30
2023-05-14T23:56:30.837Z,2.10
2023-05-14T23:58:57.506Z,2.00
